createdAt,value
2022-10-21T00:00:39.803Z,43.48
2022-10-21T00:03:06.805Z,43.50
2022-10-21T00:05:33.729Z,44.18
2022-10-21T00:08:00.546Z,43.76
2022-10-21T00:10:27.360Z,43.87
2022-10-21T00:12:54.229Z,43.90
2022-10-21T00:15:20.960Z,44.08
2022-10-21T00:17:47.810Z,43.70
2022-10-21T00:20:14.695Z,43.94
2022-10-21T00:22:41.528Z,44.05
2022-10-21T00:25:09.275Z,44.76
2022-10-21T00:27:36.609Z,44.05
2022-10-21T00:30:07.034Z,44.57
2022-10-21T00:32:34.255Z,44.32
2022-10-21T00:35:01.117Z,44.11
2022-10-21T00:37:30.844Z,43.91
2022-10-21T00:39:58.169Z,44.16
2022-10-21T00:42:32.329Z,44.32
2022-10-21T00:45:05.249Z,44.53
2022-10-21T00:47:38.765Z,44.35
2022-10-21T00:50:12.547Z,44.07
2022-10-21T00:52:39.672Z,44.20
2022-10-21T00:55:07.258Z,43.95
2022-10-21T00:57:35.681Z,44.46
2022-10-21T01:00:06.088Z,44.51
2022-10-21T01:02:32.911Z,44.39
2022-10-21T01:05:02.440Z,44.19
2022-10-21T01:07:29.589Z,44.58
2022-10-21T01:09:56.524Z,44.22
2022-10-21T01:12:33.702Z,44.53
2022-10-21T01:15:05.946Z,44.52
2022-10-21T01:17:55.678Z,44.41
2022-10-21T01:20:50.325Z,44.96
2022-10-21T01:23:50.157Z,45.79
2022-10-21T01:26:41.432Z,45.69
2022-10-21T01:29:19.790Z,45.45
2022-10-21T01:31:49.612Z,45.58
2022-10-21T01:34:16.284Z,45.35
2022-10-21T01:36:59.891Z,44.92
2022-10-21T01:39:38.013Z,44.75
2022-10-21T01:42:37.910Z,45.02
2022-10-21T01:45:27.688Z,44.90
2022-10-21T01:47:58.786Z,44.87
2022-10-21T01:50:28.669Z,44.99
2022-10-21T01:53:00.322Z,45.51
2022-10-21T01:55:31.632Z,45.79
2022-10-21T01:58:07.321Z,45.66
2022-10-21T02:00:37.142Z,45.57
2022-10-21T02:03:09.008Z,45.72
2022-10-21T02:05:36.115Z,45.84
2022-10-21T02:08:03.846Z,45.62
2022-10-21T02:10:36.805Z,45.42
2022-10-21T02:13:06.162Z,45.34
2022-10-21T02:15:34.337Z,45.54
2022-10-21T02:18:08.017Z,45.00
2022-10-21T02:20:42.266Z,45.34
2022-10-21T02:23:13.101Z,45.42
2022-10-21T02:25:42.856Z,45.29
2022-10-21T02:28:11.552Z,45.47
2022-10-21T02:30:55.850Z,45.56
2022-10-21T02:33:59.070Z,45.58
2022-10-21T02:36:43.087Z,45.92
2022-10-21T02:39:25.031Z,45.86
2022-10-21T02:41:55.241Z,46.04
2022-10-21T02:44:22.915Z,46.05
2022-10-21T02:46:50.224Z,45.36
2022-10-21T02:49:16.996Z,45.61
2022-10-21T02:51:45.551Z,45.85
2022-10-21T02:54:12.807Z,45.83
2022-10-21T02:56:39.606Z,45.61
2022-10-21T02:59:06.536Z,46.54
2022-10-21T03:01:33.262Z,46.13
2022-10-21T03:04:00.198Z,46.02
2022-10-21T03:06:26.985Z,46.12
2022-10-21T03:08:53.920Z,46.54
2022-10-21T03:11:20.993Z,45.84
2022-10-21T03:13:47.728Z,46.11
2022-10-21T03:16:14.571Z,45.35
2022-10-21T03:18:41.332Z,46.02
2022-10-21T03:21:08.224Z,46.94
2022-10-21T03:23:34.973Z,46.54
2022-10-21T03:26:01.883Z,46.30
2022-10-21T03:28:30.401Z,46.21
2022-10-21T03:30:57.443Z,46.45
2022-10-21T03:33:24.245Z,46.20
2022-10-21T03:35:50.976Z,46.29
2022-10-21T03:38:17.851Z,46.27
2022-10-21T03:40:44.581Z,46.28
2022-10-21T03:43:11.485Z,46.34
2022-10-21T03:45:38.119Z,46.16
2022-10-21T03:48:05.010Z,46.69
2022-10-21T03:50:31.814Z,46.89
2022-10-21T03:52:59.874Z,46.23
2022-10-21T03:55:27.372Z,46.35
2022-10-21T03:57:54.393Z,47.26
2022-10-21T04:00:21.533Z,47.13
2022-10-21T04:02:49.036Z,48.95
2022-10-21T04:05:16.009Z,48.92
2022-10-21T04:07:42.907Z,48.10
2022-10-21T04:10:10.133Z,49.73
2022-10-21T04:12:37.740Z,49.58
2022-10-21T04:15:06.353Z,48.52
2022-10-21T04:17:33.331Z,48.48
2022-10-21T04:20:00.213Z,47.86
2022-10-21T04:22:27.193Z,47.24
2022-10-21T04:24:53.914Z,46.90
2022-10-21T04:27:20.718Z,46.45
2022-10-21T04:29:47.367Z,47.22
2022-10-21T04:32:14.279Z,46.86
2022-10-21T04:34:40.959Z,47.64
2022-10-21T04:37:07.783Z,47.33
2022-10-21T04:39:35.609Z,47.01
2022-10-21T04:42:02.554Z,47.09
2022-10-21T04:44:29.409Z,47.04
2022-10-21T04:46:56.382Z,46.88
2022-10-21T04:49:23.205Z,47.09
2022-10-21T04:51:50.075Z,47.34
2022-10-21T04:54:16.935Z,48.03
2022-10-21T04:56:43.834Z,47.33
2022-10-21T04:59:10.612Z,48.71
2022-10-21T05:01:37.638Z,47.75
2022-10-21T05:04:04.469Z,49.13
2022-10-21T05:06:31.907Z,49.66
2022-10-21T05:08:58.766Z,50.28
2022-10-21T05:11:25.646Z,50.13
2022-10-21T05:13:53.389Z,49.32
2022-10-21T05:16:20.117Z,47.68
2022-10-21T05:18:47.104Z,47.36
2022-10-21T05:21:13.846Z,47.93
2022-10-21T05:23:40.814Z,47.32
2022-10-21T05:26:07.691Z,47.76
2022-10-21T05:28:34.576Z,47.54
2022-10-21T05:31:01.308Z,47.25
2022-10-21T05:33:28.622Z,47.24
2022-10-21T05:36:01.864Z,47.10
2022-10-21T05:38:29.426Z,50.22
2022-10-21T05:40:56.667Z,48.47
2022-10-21T05:43:24.092Z,47.50
2022-10-21T05:45:50.940Z,48.71
2022-10-21T05:48:18.394Z,47.93
2022-10-21T05:50:46.765Z,47.13
2022-10-21T05:53:14.449Z,47.16
2022-10-21T05:55:41.171Z,49.58
2022-10-21T05:58:08.096Z,48.70
2022-10-21T06:00:35.341Z,48.95
2022-10-21T06:03:02.215Z,47.85
2022-10-21T06:05:29.035Z,48.28
2022-10-21T06:07:57.017Z,51.17
2022-10-21T06:10:28.159Z,50.15
2022-10-21T06:12:56.140Z,49.74
2022-10-21T06:15:22.814Z,48.28
2022-10-21T06:17:51.191Z,48.06
2022-10-21T06:20:18.360Z,47.33
2022-10-21T06:22:45.164Z,48.75
2022-10-21T06:25:12.083Z,48.79
2022-10-21T06:27:39.103Z,48.48
2022-10-21T06:30:06.659Z,49.58
2022-10-21T06:32:33.453Z,49.94
2022-10-21T06:35:00.138Z,47.72
2022-10-21T06:37:26.845Z,48.21
2022-10-21T06:39:53.782Z,48.61
2022-10-21T06:42:20.606Z,47.49
2022-10-21T06:44:47.726Z,49.89
2022-10-21T06:47:14.488Z,50.39
2022-10-21T06:49:41.348Z,50.58
2022-10-21T06:52:08.275Z,50.31
2022-10-21T06:54:35.212Z,51.20
2022-10-21T06:57:01.961Z,48.70
2022-10-21T06:59:29.047Z,48.98
2022-10-21T07:02:00.113Z,47.11
2022-10-21T07:04:27.300Z,48.84
2022-10-21T07:06:53.991Z,48.93
2022-10-21T07:09:20.813Z,48.81
2022-10-21T07:11:47.698Z,48.79
2022-10-21T07:14:14.533Z,47.49
2022-10-21T07:16:41.406Z,49.15
2022-10-21T07:19:10.023Z,47.63
2022-10-21T07:21:37.010Z,47.11
2022-10-21T07:24:03.786Z,49.15
2022-10-21T07:26:33.174Z,48.58
2022-10-21T07:29:01.129Z,47.23
2022-10-21T07:31:31.489Z,48.39
2022-10-21T07:34:00.806Z,48.29
2022-10-21T07:36:30.402Z,46.93
2022-10-21T07:39:02.731Z,46.65
2022-10-21T07:41:32.769Z,46.13
2022-10-21T07:44:00.174Z,46.14
2022-10-21T07:46:27.431Z,44.71
2022-10-21T07:48:54.275Z,46.69
2022-10-21T07:51:27.006Z,48.15
2022-10-21T07:53:59.100Z,48.56
2022-10-21T07:56:29.556Z,47.27
2022-10-21T07:58:57.121Z,46.31
2022-10-21T08:01:24.595Z,45.73
2022-10-21T08:03:53.949Z,43.70
2022-10-21T08:06:21.216Z,45.18
2022-10-21T08:08:48.190Z,43.60
2022-10-21T08:11:26.538Z,41.75
2022-10-21T08:13:54.295Z,41.77
2022-10-21T08:16:21.562Z,42.83
2022-10-21T08:18:48.819Z,43.20
2022-10-21T08:21:15.733Z,41.88
2022-10-21T08:23:42.455Z,40.93
2022-10-21T08:26:14.676Z,44.19
2022-10-21T08:28:41.878Z,43.79
2022-10-21T08:31:12.675Z,45.00
2022-10-21T08:33:39.653Z,42.19
2022-10-21T08:36:14.649Z,42.76
2022-10-21T08:38:41.683Z,41.94
2022-10-21T08:41:31.478Z,42.21
2022-10-21T08:44:13.456Z,41.41
2022-10-21T08:46:51.771Z,42.21
2022-10-21T08:49:28.537Z,41.28
2022-10-21T08:52:03.552Z,39.94
2022-10-21T08:54:42.482Z,40.36
2022-10-21T08:57:11.933Z,40.82
2022-10-21T08:59:42.121Z,40.38
2022-10-21T09:02:11.948Z,38.64
2022-10-21T09:05:03.110Z,41.42
2022-10-21T09:07:44.060Z,40.68
2022-10-21T09:10:28.425Z,39.27
2022-10-21T09:13:12.049Z,38.37
2022-10-21T09:16:00.384Z,38.51
2022-10-21T09:18:41.989Z,39.26
2022-10-21T09:21:46.179Z,38.47
2022-10-21T09:24:19.629Z,38.37
2022-10-21T09:26:50.436Z,38.01
2022-10-21T09:29:26.972Z,37.98
2022-10-21T09:32:02.411Z,38.30
2022-10-21T09:34:35.154Z,37.77
2022-10-21T09:37:06.244Z,36.05
2022-10-21T09:40:19.596Z,36.88
2022-10-21T09:42:50.722Z,37.03
2022-10-21T09:45:26.947Z,36.33
2022-10-21T09:47:59.897Z,36.50
2022-10-21T09:50:28.178Z,34.72
2022-10-21T09:53:13.527Z,36.25
2022-10-21T09:55:43.634Z,36.04
2022-10-21T09:58:25.118Z,37.29
2022-10-21T10:00:52.269Z,36.29
2022-10-21T10:03:41.926Z,35.03
2022-10-21T10:06:08.840Z,35.75
2022-10-21T10:08:47.660Z,36.05
2022-10-21T10:11:17.903Z,36.06
2022-10-21T10:13:50.266Z,35.40
2022-10-21T10:16:30.178Z,34.67
2022-10-21T10:19:18.585Z,37.03
2022-10-21T10:21:48.041Z,35.57
2022-10-21T10:24:20.287Z,35.29
2022-10-21T10:26:49.085Z,35.63
2022-10-21T10:29:15.776Z,35.55
2022-10-21T10:31:49.610Z,35.57
2022-10-21T10:34:53.086Z,35.38
2022-10-21T10:37:26.240Z,35.67
2022-10-21T10:39:58.072Z,34.80
2022-10-21T10:42:33.535Z,34.91
2022-10-21T10:45:13.354Z,35.29
2022-10-21T10:47:48.534Z,34.71
2022-10-21T10:50:40.197Z,33.89
2022-10-21T10:53:21.373Z,33.98
2022-10-21T10:55:57.835Z,33.64
2022-10-21T10:58:28.015Z,32.89
2022-10-21T11:00:59.585Z,34.26
2022-10-21T11:03:39.108Z,34.00
2022-10-21T11:06:17.232Z,34.37
2022-10-21T11:08:50.450Z,32.67
2022-10-21T11:11:38.248Z,32.72
2022-10-21T11:14:16.427Z,32.02
2022-10-21T11:17:06.892Z,32.85
2022-10-21T11:19:55.103Z,34.70
2022-10-21T11:22:52.622Z,33.73
2022-10-21T11:25:33.276Z,32.71
2022-10-21T11:28:17.921Z,34.44
2022-10-21T11:31:09.190Z,33.22
2022-10-21T11:33:54.953Z,33.55
2022-10-21T11:36:21.844Z,34.12
2022-10-21T11:39:03.695Z,32.92
2022-10-21T11:41:31.022Z,32.07
2022-10-21T11:44:19.954Z,31.21
2022-10-21T11:47:38.967Z,30.03
2022-10-21T11:50:26.660Z,30.19
2022-10-21T11:53:14.930Z,30.15
2022-10-21T11:55:53.799Z,28.88
2022-10-21T11:58:39.556Z,30.75
2022-10-21T12:01:06.373Z,30.79
2022-10-21T12:03:51.408Z,30.07
2022-10-21T12:06:26.119Z,30.30
2022-10-21T12:09:01.693Z,30.30
2022-10-21T12:11:36.299Z,29.02
2022-10-21T12:14:14.948Z,29.05
2022-10-21T12:16:41.998Z,28.16
2022-10-21T12:19:13.387Z,28.82
2022-10-21T12:21:44.931Z,28.09
2022-10-21T12:24:33.962Z,28.18
2022-10-21T12:27:11.818Z,26.72
2022-10-21T12:29:47.975Z,25.63
2022-10-21T12:32:29.648Z,25.27
2022-10-21T12:34:56.754Z,25.22
2022-10-21T12:37:42.274Z,24.14
2022-10-21T12:40:17.476Z,23.88
2022-10-21T12:42:57.638Z,25.35
2022-10-21T12:45:34.696Z,24.44
2022-10-21T12:48:06.044Z,23.54
2022-10-21T12:50:34.326Z,23.91
2022-10-21T12:53:15.146Z,23.33
2022-10-21T12:55:50.083Z,23.11
2022-10-21T12:58:36.234Z,22.69
2022-10-21T13:01:05.875Z,22.84
2022-10-21T13:03:51.327Z,22.97
2022-10-21T13:06:54.640Z,22.35
2022-10-21T13:09:39.877Z,22.35
2022-10-21T13:12:09.530Z,22.16
2022-10-21T13:14:47.043Z,22.33
2022-10-21T13:17:20.493Z,22.12
2022-10-21T13:19:55.229Z,21.76
2022-10-21T13:22:42.150Z,22.81
2022-10-21T13:25:19.571Z,22.63
2022-10-21T13:28:12.343Z,21.86
2022-10-21T13:30:57.037Z,22.22
2022-10-21T13:33:31.313Z,22.61
2022-10-21T13:36:14.635Z,22.37
2022-10-21T13:38:55.449Z,22.73
2022-10-21T13:41:28.665Z,21.46
2022-10-21T13:43:57.607Z,22.92
2022-10-21T13:46:37.841Z,22.38
2022-10-21T13:49:27.137Z,22.62
2022-10-21T13:51:54.416Z,23.06
2022-10-21T13:54:21.188Z,23.81
2022-10-21T13:56:48.138Z,24.14
2022-10-21T13:59:26.523Z,24.06
2022-10-21T14:01:55.541Z,24.67
2022-10-21T14:04:30.587Z,24.93
2022-10-21T14:07:04.671Z,25.72
2022-10-21T14:09:45.579Z,25.61
2022-10-21T14:12:24.390Z,26.18
2022-10-21T14:14:54.161Z,25.52
2022-10-21T14:17:27.249Z,25.83
2022-10-21T14:20:01.676Z,24.97
2022-10-21T14:22:29.342Z,25.20
2022-10-21T14:24:58.996Z,25.42
2022-10-21T14:27:29.249Z,25.65
2022-10-21T14:29:58.120Z,25.42
2022-10-21T14:32:27.261Z,26.79
2022-10-21T14:35:22.636Z,27.29
2022-10-21T14:38:01.829Z,27.81
2022-10-21T14:40:32.951Z,28.08
2022-10-21T14:43:01.098Z,28.35
2022-10-21T14:45:34.091Z,28.26
2022-10-21T14:48:22.065Z,28.25
2022-10-21T14:50:54.827Z,28.02
2022-10-21T14:53:24.004Z,28.14
2022-10-21T14:55:57.171Z,28.28
2022-10-21T14:58:34.649Z,28.41
2022-10-21T15:01:11.487Z,28.64
2022-10-21T15:03:47.214Z,28.51
2022-10-21T15:06:18.553Z,28.85
2022-10-21T15:09:00.400Z,29.38
2022-10-21T15:11:28.942Z,29.01
2022-10-21T15:14:00.276Z,28.87
2022-10-21T15:16:30.446Z,28.99
2022-10-21T15:18:58.983Z,28.86
2022-10-21T15:21:31.884Z,28.94
2022-10-21T15:23:59.334Z,29.61
2022-10-21T15:26:29.238Z,29.45
2022-10-21T15:28:56.776Z,29.60
2022-10-21T15:31:26.055Z,29.53
2022-10-21T15:33:56.427Z,29.98
2022-10-21T15:36:24.410Z,32.08
2022-10-21T15:38:51.198Z,32.04
2022-10-21T15:41:24.000Z,32.75
2022-10-21T15:44:01.979Z,33.20
2022-10-21T15:46:30.488Z,32.90
2022-10-21T15:49:00.824Z,33.19
2022-10-21T15:51:27.860Z,33.34
2022-10-21T15:53:54.573Z,33.58
2022-10-21T15:56:21.292Z,33.58
2022-10-21T15:58:48.168Z,33.92
2022-10-21T16:01:17.598Z,34.59
2022-10-21T16:03:45.890Z,34.71
2022-10-21T16:06:18.444Z,35.47
2022-10-21T16:08:45.538Z,35.91
2022-10-21T16:11:25.524Z,35.28
2022-10-21T16:14:02.140Z,35.12
2022-10-21T16:16:29.096Z,35.23
2022-10-21T16:18:56.414Z,35.21
2022-10-21T16:21:23.529Z,34.91
2022-10-21T16:23:50.535Z,35.24
2022-10-21T16:26:22.636Z,36.23
2022-10-21T16:28:51.374Z,35.83
2022-10-21T16:31:19.553Z,35.37
2022-10-21T16:33:46.547Z,36.05
2022-10-21T16:36:16.806Z,35.13
2022-10-21T16:38:46.603Z,35.40
2022-10-21T16:41:16.891Z,35.70
2022-10-21T16:43:45.680Z,36.35
2022-10-21T16:46:26.492Z,36.52
2022-10-21T16:48:54.152Z,36.69
2022-10-21T16:51:23.754Z,37.11
2022-10-21T16:53:50.875Z,37.05
2022-10-21T16:56:18.236Z,37.25
2022-10-21T16:58:45.391Z,36.81
2022-10-21T17:01:20.015Z,36.73
2022-10-21T17:03:47.062Z,36.61
2022-10-21T17:06:22.269Z,36.96
2022-10-21T17:08:51.022Z,36.79
2022-10-21T17:11:33.483Z,36.80
2022-10-21T17:14:01.456Z,37.02
2022-10-21T17:16:29.903Z,37.22
2022-10-21T17:18:57.970Z,37.01
2022-10-21T17:21:31.364Z,37.07
2022-10-21T17:24:00.891Z,36.97
2022-10-21T17:26:30.228Z,37.67
2022-10-21T17:28:59.009Z,37.19
2022-10-21T17:31:28.732Z,37.62
2022-10-21T17:33:58.436Z,37.57
2022-10-21T17:36:25.885Z,37.60
2022-10-21T17:38:52.706Z,37.42
2022-10-21T17:41:20.510Z,37.70
2022-10-21T17:43:48.262Z,38.01
2022-10-21T17:46:21.581Z,37.82
2022-10-21T17:48:52.364Z,38.30
2022-10-21T17:51:19.836Z,38.04
2022-10-21T17:53:49.263Z,37.84
2022-10-21T17:56:17.007Z,37.98
2022-10-21T17:58:43.910Z,38.56
2022-10-21T18:01:13.117Z,38.26
2022-10-21T18:03:42.061Z,39.00
2022-10-21T18:06:11.222Z,38.28
2022-10-21T18:08:38.454Z,38.34
2022-10-21T18:11:14.434Z,38.39
2022-10-21T18:13:42.743Z,39.33
2022-10-21T18:16:21.491Z,39.92
2022-10-21T18:18:49.984Z,39.90
2022-10-21T18:21:19.342Z,39.59
2022-10-21T18:23:50.636Z,39.88
2022-10-21T18:26:21.207Z,40.52
2022-10-21T18:28:59.804Z,40.07
2022-10-21T18:31:29.968Z,41.14
2022-10-21T18:33:58.257Z,40.35
2022-10-21T18:36:25.754Z,40.11
2022-10-21T18:38:53.478Z,39.81
2022-10-21T18:41:21.769Z,40.33
2022-10-21T18:43:59.980Z,40.39
2022-10-21T18:46:27.785Z,40.23
2022-10-21T18:48:54.809Z,39.39
2022-10-21T18:51:23.826Z,40.03
2022-10-21T18:53:52.761Z,39.85
2022-10-21T18:56:21.258Z,40.17
2022-10-21T18:58:49.991Z,39.45
2022-10-21T19:01:18.400Z,39.61
2022-10-21T19:03:45.914Z,39.61
2022-10-21T19:06:34.254Z,40.03
2022-10-21T19:09:02.260Z,39.45
2022-10-21T19:11:29.508Z,40.14
2022-10-21T19:13:56.599Z,39.60
2022-10-21T19:16:23.506Z,40.15
2022-10-21T19:18:50.355Z,41.65
2022-10-21T19:21:19.507Z,41.23
2022-10-21T19:23:46.853Z,41.05
2022-10-21T19:26:14.198Z,40.88
2022-10-21T19:28:41.429Z,41.96
2022-10-21T19:31:11.547Z,41.88
2022-10-21T19:33:39.004Z,41.25
2022-10-21T19:36:06.692Z,41.41
2022-10-21T19:38:50.525Z,40.93
2022-10-21T19:41:19.952Z,41.45
2022-10-21T19:43:48.121Z,41.95
2022-10-21T19:46:21.181Z,40.76
2022-10-21T19:48:50.908Z,41.03
2022-10-21T19:51:20.302Z,41.14
2022-10-21T19:53:48.759Z,41.04
2022-10-21T19:56:16.680Z,40.82
2022-10-21T19:58:47.367Z,40.96
2022-10-21T20:01:17.517Z,41.28
2022-10-21T20:03:46.127Z,41.65
2022-10-21T20:06:16.205Z,41.32
2022-10-21T20:08:43.152Z,41.99
2022-10-21T20:11:13.064Z,41.60
2022-10-21T20:13:40.780Z,42.15
2022-10-21T20:16:08.532Z,42.51
2022-10-21T20:18:35.234Z,42.45
2022-10-21T20:21:07.467Z,42.38
2022-10-21T20:23:34.680Z,42.22
2022-10-21T20:26:01.736Z,42.22
2022-10-21T20:28:29.708Z,42.22
2022-10-21T20:30:56.612Z,41.63
2022-10-21T20:33:23.676Z,41.17
2022-10-21T20:35:50.420Z,41.33
2022-10-21T20:38:17.236Z,42.00
2022-10-21T20:40:43.949Z,41.34
2022-10-21T20:43:11.363Z,41.90
2022-10-21T20:45:38.190Z,42.18
2022-10-21T20:48:05.136Z,41.25
2022-10-21T20:50:31.813Z,41.82
2022-10-21T20:52:58.771Z,41.97
2022-10-21T20:55:25.548Z,41.75
2022-10-21T20:57:52.229Z,42.30
2022-10-21T21:00:19.275Z,42.38
2022-10-21T21:02:47.875Z,43.79
2022-10-21T21:05:16.769Z,42.85
2022-10-21T21:07:43.824Z,43.12
2022-10-21T21:10:10.710Z,43.05
2022-10-21T21:12:37.937Z,42.71
2022-10-21T21:15:05.268Z,42.45
2022-10-21T21:17:32.003Z,42.53
2022-10-21T21:19:59.011Z,42.23
2022-10-21T21:22:25.820Z,42.59
2022-10-21T21:24:52.656Z,42.60
2022-10-21T21:27:19.496Z,43.53
2022-10-21T21:29:46.295Z,45.79
2022-10-21T21:32:13.069Z,47.45
2022-10-21T21:34:39.942Z,46.10
2022-10-21T21:37:06.726Z,46.33
2022-10-21T21:39:33.489Z,45.43
2022-10-21T21:42:00.387Z,44.78
2022-10-21T21:44:27.280Z,44.50
2022-10-21T21:46:54.061Z,43.88
2022-10-21T21:49:20.767Z,44.69
2022-10-21T21:51:47.616Z,45.88
2022-10-21T21:54:14.569Z,45.52
2022-10-21T21:56:41.288Z,44.74
2022-10-21T21:59:08.354Z,44.88
2022-10-21T22:01:35.237Z,45.23
2022-10-21T22:04:02.510Z,45.83
2022-10-21T22:06:32.636Z,48.28
2022-10-21T22:09:00.002Z,46.96
2022-10-21T22:11:32.273Z,47.18
2022-10-21T22:13:59.467Z,47.37
2022-10-21T22:16:30.163Z,47.28
2022-10-21T22:18:59.865Z,49.94
2022-10-21T22:21:29.531Z,50.20
2022-10-21T22:23:56.491Z,49.15
2022-10-21T22:26:23.540Z,47.69
2022-10-21T22:28:50.634Z,46.93
2022-10-21T22:31:18.245Z,47.31
2022-10-21T22:33:45.605Z,47.76
2022-10-21T22:36:12.400Z,47.77
2022-10-21T22:38:39.276Z,48.57
2022-10-21T22:41:09.947Z,47.63
2022-10-21T22:43:39.205Z,48.24
2022-10-21T22:46:21.425Z,48.32
2022-10-21T22:48:52.938Z,47.33
2022-10-21T22:51:19.782Z,47.59
2022-10-21T22:53:50.792Z,48.22
2022-10-21T22:56:22.084Z,47.53
2022-10-21T22:58:48.741Z,46.86
2022-10-21T23:01:15.451Z,46.98
2022-10-21T23:03:42.295Z,46.95
2022-10-21T23:06:09.168Z,45.83
2022-10-21T23:08:35.945Z,45.65
2022-10-21T23:11:02.774Z,45.71
2022-10-21T23:13:29.521Z,45.15
2022-10-21T23:15:56.311Z,46.46
2022-10-21T23:18:23.166Z,46.52
2022-10-21T23:20:50.165Z,46.31
2022-10-21T23:23:16.922Z,46.34
2022-10-21T23:25:43.851Z,45.91
2022-10-21T23:28:10.959Z,45.79
2022-10-21T23:30:38.503Z,46.19
2022-10-21T23:33:05.286Z,46.25
2022-10-21T23:35:32.640Z,45.93
2022-10-21T23:37:59.671Z,46.32
2022-10-21T23:40:27.809Z,46.45
2022-10-21T23:42:54.605Z,46.59
2022-10-21T23:45:21.527Z,46.50
2022-10-21T23:47:48.361Z,46.37
2022-10-21T23:50:15.912Z,46.03
2022-10-21T23:52:42.800Z,46.01
2022-10-21T23:55:10.071Z,46.10
2022-10-21T23:57:37.110Z,45.89
